Terminal Aerodrome Forecast
Issued by NWS

Home | Current Version | Previous Version | Text Only | Print | Product List | Glossary On
Versions: 1 2 3 4 5 6 7 8 9 10 11 12 13 14 15
000
FTUS46 KSTO 261100
TAFSAC
TAF
KSAC 261127Z 2612/2712 34010KT P6SM SKC
     FM261800 34012G18KT P6SM SKC
     FM270100 03003KT P6SM SKC=

USA.gov is the U.S. government's official web portal to all federal, state and local government web resources and services.